createdAt,value
2019-06-01T00:03:12.281Z,18.11
2019-06-01T00:07:19.113Z,18.01
2019-06-01T00:11:25.910Z,17.96
2019-06-01T00:15:32.818Z,17.81
2019-06-01T00:19:39.953Z,17.72
2019-06-01T00:23:46.809Z,17.66
2019-06-01T00:27:53.695Z,17.60
2019-06-01T00:32:00.483Z,17.56
2019-06-01T00:36:07.343Z,17.55
2019-06-01T00:40:14.245Z,17.47
2019-06-01T00:44:21.111Z,17.42
2019-06-01T00:48:27.879Z,17.33
2019-06-01T00:52:34.729Z,17.25
2019-06-01T00:56:41.599Z,17.28
2019-06-01T01:00:49.426Z,17.19
2019-06-01T01:05:16.050Z,17.16
2019-06-01T01:09:22.846Z,17.02
2019-06-01T01:13:29.896Z,17.03
2019-06-01T01:17:36.912Z,17.03
2019-06-01T01:21:43.716Z,16.97
2019-06-01T01:25:50.668Z,17.00
2019-06-01T01:29:57.396Z,17.00
2019-06-01T01:34:04.093Z,16.88
2019-06-01T01:38:10.837Z,16.89
2019-06-01T01:42:17.520Z,16.77
2019-06-01T01:46:24.233Z,16.77
2019-06-01T01:50:30.948Z,16.78
2019-06-01T01:54:37.788Z,16.66
2019-06-01T01:58:44.684Z,16.48
2019-06-01T02:02:51.874Z,16.45
2019-06-01T02:06:58.568Z,16.47
2019-06-01T02:11:05.306Z,16.37
2019-06-01T02:15:12.181Z,16.18
2019-06-01T02:19:19.103Z,16.21
2019-06-01T02:23:25.872Z,16.17
2019-06-01T02:27:32.795Z,16.16
2019-06-01T02:31:42.552Z,16.07
2019-06-01T02:35:48.198Z,15.99
2019-06-01T02:39:56.663Z,15.88
2019-06-01T02:44:04.350Z,15.89
2019-06-01T02:48:12.026Z,15.84
2019-06-01T02:52:18.904Z,15.80
2019-06-01T02:56:25.647Z,15.86
2019-06-01T03:01:22.262Z,15.86
2019-06-01T03:05:31.565Z,15.87
2019-06-01T03:09:39.956Z,15.81
2019-06-01T03:13:50.547Z,15.80
2019-06-01T03:18:01.632Z,15.75
2019-06-01T03:22:10.497Z,15.67
2019-06-01T03:26:21.135Z,15.58
2019-06-01T03:30:45.148Z,15.61
2019-06-01T03:34:49.863Z,15.52
2019-06-01T03:38:56.706Z,15.45
2019-06-01T03:43:04.274Z,15.50
2019-06-01T03:47:11.880Z,15.51
2019-06-01T03:51:18.699Z,15.48
2019-06-01T03:55:25.439Z,15.48
2019-06-01T03:59:32.213Z,15.47
2019-06-01T04:03:39.225Z,15.48
2019-06-01T04:07:46.071Z,15.42
2019-06-01T04:11:53.040Z,15.23
2019-06-01T04:15:59.889Z,15.18
2019-06-01T04:20:08.191Z,15.31
2019-06-01T04:24:15.912Z,15.13
2019-06-01T04:28:22.917Z,15.17
2019-06-01T04:32:29.678Z,15.36
2019-06-01T04:36:36.382Z,15.40
2019-06-01T04:40:43.105Z,15.46
2019-06-01T04:44:49.894Z,15.52
2019-06-01T04:48:56.597Z,15.53
2019-06-01T04:53:04.578Z,15.62
2019-06-01T04:57:11.553Z,15.64
2019-06-01T05:01:18.359Z,15.73
2019-06-01T05:05:25.116Z,15.85
2019-06-01T05:09:31.878Z,15.85
2019-06-01T05:13:38.610Z,15.99
2019-06-01T05:17:45.367Z,15.97
2019-06-01T05:21:52.300Z,16.14
2019-06-01T05:25:59.120Z,16.19
2019-06-01T05:30:07.320Z,16.03
2019-06-01T05:34:14.244Z,16.16
2019-06-01T05:38:21.009Z,16.44
2019-06-01T05:42:27.811Z,16.54
2019-06-01T05:46:36.314Z,16.77
2019-06-01T05:50:44.027Z,16.81
2019-06-01T05:54:50.899Z,16.98
2019-06-01T05:58:57.701Z,17.00
2019-06-01T06:03:06.904Z,17.21
2019-06-01T06:07:14.736Z,17.24
2019-06-01T06:11:21.553Z,17.43
2019-06-01T06:15:28.670Z,17.57
2019-06-01T06:19:35.566Z,17.71
2019-06-01T06:23:42.347Z,17.86
2019-06-01T06:27:49.216Z,18.16
2019-06-01T06:31:56.193Z,18.11
2019-06-01T06:36:03.572Z,18.30
2019-06-01T06:40:10.887Z,18.34
2019-06-01T06:44:18.526Z,18.71
2019-06-01T06:48:25.575Z,18.76
2019-06-01T06:52:32.383Z,18.63
2019-06-01T06:56:39.175Z,18.90
2019-06-01T07:00:46.042Z,19.02
2019-06-01T07:04:52.969Z,19.24
2019-06-01T07:08:59.909Z,19.40
2019-06-01T07:13:06.742Z,19.61
2019-06-01T07:17:15.700Z,19.62
2019-06-01T07:21:23.646Z,19.77
2019-06-01T07:25:30.655Z,19.87
2019-06-01T07:29:37.432Z,20.05
2019-06-01T07:33:46.426Z,20.00
2019-06-01T07:37:53.255Z,20.40
2019-06-01T07:42:00.096Z,20.38
2019-06-01T07:46:06.851Z,20.52
2019-06-01T07:50:14.445Z,20.82
2019-06-01T07:54:22.273Z,21.01
2019-06-01T07:58:29.052Z,21.25
2019-06-01T08:02:36.144Z,21.48
2019-06-01T08:06:47.408Z,21.55
2019-06-01T08:10:52.483Z,21.78
2019-06-01T08:14:59.342Z,21.99
2019-06-01T08:19:07.089Z,22.21
2019-06-01T08:23:13.867Z,22.67
2019-06-01T08:27:20.731Z,23.14
2019-06-01T08:31:28.698Z,23.69
2019-06-01T08:35:35.557Z,23.82
2019-06-01T08:39:42.642Z,24.53
2019-06-01T08:43:49.645Z,24.77
2019-06-01T08:47:56.541Z,25.29
2019-06-01T08:52:03.649Z,25.49
2019-06-01T08:56:10.402Z,26.14
2019-06-01T09:00:17.491Z,26.19
2019-06-01T09:04:24.588Z,26.88
2019-06-01T09:08:31.389Z,27.42
2019-06-01T09:12:38.273Z,27.77
2019-06-01T09:16:45.012Z,27.90
2019-06-01T09:20:51.821Z,27.87
2019-06-01T09:24:58.613Z,28.18
2019-06-01T09:29:05.458Z,28.23
2019-06-01T09:33:12.293Z,28.72
2019-06-01T09:37:19.516Z,28.26
2019-06-01T09:41:28.336Z,28.22
2019-06-01T09:45:36.598Z,28.20
2019-06-01T09:49:43.333Z,29.85
2019-06-01T09:53:50.097Z,29.72
2019-06-01T09:57:57.120Z,29.08
2019-06-01T10:02:03.830Z,28.37
2019-06-01T10:06:13.978Z,28.89
2019-06-01T10:10:20.072Z,29.45
2019-06-01T10:14:26.922Z,29.23
2019-06-01T10:18:36.941Z,29.58
2019-06-01T10:22:44.961Z,29.20
2019-06-01T10:26:52.169Z,30.04
2019-06-01T10:31:11.362Z,30.24
2019-06-01T10:35:18.329Z,30.11
2019-06-01T10:39:51.981Z,30.65
2019-06-01T10:43:59.228Z,30.40
2019-06-01T10:48:06.093Z,30.00
2019-06-01T10:52:14.384Z,30.40
2019-06-01T10:56:21.386Z,30.20
2019-06-01T11:00:39.658Z,31.01
2019-06-01T11:04:37.120Z,30.67
2019-06-01T11:08:43.850Z,30.70
2019-06-01T11:12:50.726Z,29.80
2019-06-01T11:16:57.549Z,30.41
2019-06-01T11:21:04.477Z,30.87
2019-06-01T11:25:11.996Z,31.44
2019-06-01T11:29:18.780Z,30.83
2019-06-01T11:33:26.832Z,30.46
2019-06-01T11:37:34.216Z,30.64
2019-06-01T11:41:40.979Z,31.28
2019-06-01T11:45:47.825Z,31.79
2019-06-01T11:49:54.767Z,30.06
2019-06-01T11:54:01.768Z,30.35
2019-06-01T11:58:08.739Z,29.91
2019-06-01T12:02:15.869Z,30.42
2019-06-01T12:06:22.823Z,30.91
2019-06-01T12:10:29.649Z,29.80
2019-06-01T12:14:36.444Z,31.41
2019-06-01T12:18:44.627Z,30.14
2019-06-01T12:22:54.736Z,30.38
2019-06-01T12:27:01.608Z,31.25
2019-06-01T12:31:08.605Z,30.66
2019-06-01T12:35:15.916Z,31.54
2019-06-01T12:39:23.144Z,31.51
2019-06-01T12:43:30.088Z,31.55
2019-06-01T12:47:49.647Z,31.35
2019-06-01T12:51:54.595Z,31.46
2019-06-01T12:56:01.417Z,31.75
2019-06-01T13:00:09.533Z,31.79
2019-06-01T13:04:16.407Z,32.18
2019-06-01T13:08:23.299Z,32.70
2019-06-01T13:12:30.200Z,32.78
2019-06-01T13:16:37.314Z,32.90
2019-06-01T13:20:45.306Z,32.95
2019-06-01T13:24:52.220Z,33.18
2019-06-01T13:28:59.007Z,32.43
2019-06-01T13:33:06.303Z,32.90
2019-06-01T13:37:13.079Z,32.37
2019-06-01T13:41:20.055Z,32.36
2019-06-01T13:45:26.837Z,32.30
2019-06-01T13:49:33.857Z,31.32
2019-06-01T13:53:40.829Z,32.43
2019-06-01T13:57:48.311Z,31.78
2019-06-01T14:01:55.432Z,32.00
2019-06-01T14:06:02.291Z,31.59
2019-06-01T14:10:09.405Z,32.15
2019-06-01T14:14:16.336Z,32.17
2019-06-01T14:18:23.162Z,31.81
2019-06-01T14:22:32.981Z,31.82
2019-06-01T14:26:39.673Z,32.24
2019-06-01T14:30:48.450Z,32.21
2019-06-01T14:34:55.400Z,31.71
2019-06-01T14:39:02.243Z,31.12
2019-06-01T14:43:09.374Z,31.74
2019-06-01T14:47:18.662Z,32.41
2019-06-01T14:51:24.487Z,31.48
2019-06-01T14:55:31.229Z,31.25
2019-06-01T14:59:37.983Z,31.52
2019-06-01T15:03:44.785Z,31.54
2019-06-01T15:07:52.345Z,30.85
2019-06-01T15:11:59.272Z,31.04
2019-06-01T15:16:06.156Z,31.15
2019-06-01T15:20:14.318Z,30.82
2019-06-01T15:24:21.203Z,30.14
2019-06-01T15:28:28.093Z,30.57
2019-06-01T15:32:34.948Z,30.46
2019-06-01T15:36:41.796Z,30.38
2019-06-01T15:40:48.745Z,30.34
2019-06-01T15:44:55.488Z,30.15
2019-06-01T15:49:02.314Z,29.63
2019-06-01T15:53:09.054Z,29.57
2019-06-01T15:57:15.808Z,29.56
2019-06-01T16:01:22.960Z,29.52
2019-06-01T16:05:29.859Z,29.53
2019-06-01T16:09:42.553Z,29.24
2019-06-01T16:13:45.242Z,29.19
2019-06-01T16:17:51.932Z,28.94
2019-06-01T16:22:00.235Z,28.89
2019-06-01T16:26:15.617Z,29.02
2019-06-01T16:30:16.233Z,28.81
2019-06-01T16:34:23.005Z,28.32
2019-06-01T16:38:29.707Z,28.61
2019-06-01T16:42:36.541Z,28.62
2019-06-01T16:46:46.045Z,28.53
2019-06-01T16:50:52.940Z,28.29
2019-06-01T16:55:00.484Z,28.37
2019-06-01T16:59:10.251Z,28.41
2019-06-01T17:03:18.064Z,28.31
2019-06-01T17:07:24.832Z,28.25
2019-06-01T17:11:31.558Z,28.18
2019-06-01T17:15:39.527Z,28.00
2019-06-01T17:19:46.255Z,27.89
2019-06-01T17:23:53.099Z,27.96
2019-06-01T17:28:00.993Z,27.69
2019-06-01T17:32:22.756Z,27.60
2019-06-01T17:36:16.298Z,27.59
2019-06-01T17:40:36.820Z,27.47
2019-06-01T17:44:31.762Z,27.48
2019-06-01T17:48:38.560Z,27.51
2019-06-01T17:52:45.418Z,27.49
2019-06-01T17:56:52.312Z,27.47
2019-06-01T18:00:59.685Z,27.29
2019-06-01T18:05:08.129Z,27.29
2019-06-01T18:09:16.204Z,27.22
2019-06-01T18:13:23.514Z,27.11
2019-06-01T18:17:30.474Z,27.09
2019-06-01T18:21:37.216Z,27.01
2019-06-01T18:25:44.208Z,26.92
2019-06-01T18:29:50.965Z,26.92
2019-06-01T18:33:57.889Z,26.84
2019-06-01T18:38:05.763Z,26.69
2019-06-01T18:42:12.796Z,26.72
2019-06-01T18:46:19.614Z,26.68
2019-06-01T18:50:26.699Z,26.57
2019-06-01T18:54:33.559Z,26.46
2019-06-01T18:58:40.307Z,26.40
2019-06-01T19:02:47.059Z,26.26
2019-06-01T19:06:53.761Z,26.21
2019-06-01T19:11:03.020Z,26.11
2019-06-01T19:15:25.143Z,26.00
2019-06-01T19:19:20.896Z,25.93
2019-06-01T19:23:28.553Z,25.81
2019-06-01T19:27:35.352Z,25.67
2019-06-01T19:31:42.411Z,25.60
2019-06-01T19:35:49.834Z,25.48
2019-06-01T19:39:56.711Z,25.24
2019-06-01T19:44:03.655Z,25.24
2019-06-01T19:48:12.345Z,25.04
2019-06-01T19:52:19.279Z,25.04
2019-06-01T19:56:26.188Z,24.96
2019-06-01T20:00:33.204Z,24.82
2019-06-01T20:04:40.216Z,24.72
2019-06-01T20:08:48.907Z,24.50
2019-06-01T20:12:55.726Z,24.37
2019-06-01T20:17:02.630Z,24.30
2019-06-01T20:21:09.506Z,24.24
2019-06-01T20:25:17.579Z,24.13
2019-06-01T20:29:24.712Z,24.05
2019-06-01T20:33:34.427Z,24.02
2019-06-01T20:37:40.767Z,23.92
2019-06-01T20:41:47.733Z,23.79
2019-06-01T20:45:57.112Z,23.72
2019-06-01T20:50:05.459Z,23.62
2019-06-01T20:54:12.979Z,23.57
2019-06-01T20:58:22.021Z,23.37
2019-06-01T21:02:29.513Z,23.31
2019-06-01T21:06:37.326Z,23.21
2019-06-01T21:10:44.580Z,23.11
2019-06-01T21:14:51.793Z,23.01
2019-06-01T21:18:58.603Z,23.00
2019-06-01T21:23:05.679Z,22.91
2019-06-01T21:27:12.561Z,22.82
2019-06-01T21:31:19.370Z,22.68
2019-06-01T21:35:26.190Z,22.67
2019-06-01T21:39:34.583Z,22.60
2019-06-01T21:43:43.414Z,22.61
2019-06-01T21:47:50.497Z,22.55
2019-06-01T21:51:57.267Z,22.51
2019-06-01T21:56:04.205Z,22.46
2019-06-01T22:00:13.584Z,22.39
2019-06-01T22:04:23.015Z,22.32
2019-06-01T22:08:29.893Z,22.28
2019-06-01T22:12:36.638Z,22.24
2019-06-01T22:16:43.715Z,22.13
2019-06-01T22:20:50.606Z,22.08
2019-06-01T22:24:57.944Z,22.05
2019-06-01T22:29:05.074Z,21.98
2019-06-01T22:33:11.883Z,21.91
2019-06-01T22:37:19.745Z,21.81
2019-06-01T22:41:28.026Z,21.77
2019-06-01T22:45:35.196Z,21.64
2019-06-01T22:49:42.187Z,21.59
2019-06-01T22:53:49.092Z,21.36
2019-06-01T22:57:58.754Z,21.31
2019-06-01T23:02:05.652Z,21.21
2019-06-01T23:06:12.426Z,21.10
2019-06-01T23:10:19.199Z,21.01
2019-06-01T23:14:27.291Z,20.97
2019-06-01T23:18:34.106Z,20.90
2019-06-01T23:22:40.798Z,20.82
2019-06-01T23:26:47.551Z,20.77
2019-06-01T23:30:54.451Z,20.75
2019-06-01T23:35:01.229Z,20.68
2019-06-01T23:39:08.765Z,20.60
2019-06-01T23:43:15.465Z,20.50
2019-06-01T23:47:23.025Z,20.50
2019-06-01T23:51:29.989Z,20.43
2019-06-01T23:55:36.749Z,20.43
2019-06-01T23:59:43.607Z,20.37
